Crystal Mountain, Washington
Current Conditions -  °F | °C
As of 5:53 PM on Wednesday 22 Oct 2014 (Local Time) from KRNT Reporting Station
Light Rain Light Rain  
Wind Chill: 56°   Ceiling: 9000
Heat Index: 56°   Visibility: 8mi
Dew Point: 54°   Wind: 6mph
Humidity: 93%   Direction: NA
Pressure: 29.59"   Gusts: NA
Location:  47.1782°N, 121.641°W
Report Text: KRNT 230053Z VRB05KT 8SM -RA SCT065 OVC090 13/12 A2959 RMK AO2 SLP024 P0005 T01330122
Loading
Personal Weather Stations






























Interactive Weather Map
Tropical Storm Tracking
New forecast layout! Learn more

10-Day Weather Forecast

Advertisements
Track Severe Weather on mobile